Pagrindinis puslapis
METAR-TAF:

METAR-TAF

Oro uostai :

Repulse Bay, Nunavutas, Kanada

platuma: 66-32N, ilguma: 086-15W, Aukštis: 24 m

Dabartinis oras

Ataskaita buvo paskelbta 23 minutes, ne 20:00 UTC
Vėjas 3 kt iš Šiaurės/Šiaurės Vakarų
Temperatūra -30°C
Drėgmė 68%
Slėgis 1005 hPa
Matomumas: 24.1 km
Mažai debesys ne aukštis 12000 ft

METAR: CYUT 202000Z 33003KT 15SM FEW120 M30/M34 A2969 RMK AC2 SLP060

Laikas: 14:23 (20:23 UTC)

Prognozė

Ataskaita buvo paskelbta 1 valandą ir 45 minutes, ne 18:38 UTC
Prognozė galioja nuo 20 metu 19 UTC su 20 metu 23 UTC
Vėjas 8 kt iš Šiaurės Vakarų
Matomumas: 10 km
Mažai debesys ne aukštis 10000 ft
Laikinai
nuo 20 metu 19 UTC su 20 metu 23 UTC
Matomumas: 6.4 km
ledo kristalai, rūkana

TAF: CYUT 201838Z 2019/2023 32008KT P6SM FEW100 TEMPO 2019/2023 4SM IC BR RMK NXT FCST WILL BE ISSUED AT 211445Z

Orai ataskaitas ir orų prognozės (METAR, TAF).

turimą stotys yra geltonos ir raudonos taškus žemėlapyje.

Perkelti pele per norėdami pamatyti stoties vardą.

Tada spustelėkite, norėdami matyti oro stebėjimo ir prognozės.

Norėdami pakeisti žemėlapį: spustelėkite ant žalios mygtukų su juodo kryžiaus žemyn,; žalią mygtuką su brūkšneliu, jei norite nutolinti; arba žalių rodyklių gretimoms žemėlapius.


METAR-TAF: